Home > Products > Valid Products > TAF

000
FTUS42 TJSJ 011800 AAA
TAFJSJ
TAF AMD
TJSJ 011825Z 0118/0218 06015G22KT P6SM VCSH SCT030
      TEMPO 0118/0121 4SM SHRA BKN030
     FM012200 10005KT P6SM FEW025
     FM021330 07013KT P6SM FEW030=



000
FTUS42 TJSJ 011700
TAFKPK
TAF
TKPK 011736Z 0118/0218 05012KT P6SM VCSH FEW018
      TEMPO 0118/0121 5SM SHRA BKN015
     FM020600 08010KT P6SM FEW020
      AMD NOT SKED 0202/0211=



000
FTUS42 TJSJ 011700
TAFNCM
TAF
TNCM 011736Z 0118/0218 10012KT P6SM VCSH FEW025=



000
FTUS42 TJSJ 011700
TAFISX
TAF
TISX 011736Z 0118/0218 12013KT P6SM VCSH FEW025
     FM012300 06006KT P6SM FEW025
     FM021200 11012KT P6SM VCSH SCT025=



000
FTUS42 TJSJ 011700
TAFJMZ
TAF
TJMZ 011736Z 0118/0218 27009KT P6SM VCTS BKN040CB
      TEMPO 0118/0121 VRB12KT 5SM SHRA BKN030
     FM012200 08006KT P6SM SCT040
     FM021500 25007KT P6SM SCT030
      AMD NOT SKED 0123/0211=



000
FTUS42 TJSJ 011700
TAFJSJ
TAF
TJSJ 011736Z 0118/0218 06015G22KT P6SM SCT030
     FM012200 10005KT P6SM FEW025
     FM021330 07013KT P6SM FEW030=



000
FTUS42 TJSJ 011700
TAFJBQ
TAF
TJBQ 011736Z 0118/0218 07015KT P6SM VCTS SCT035CB
     FM012300 11006KT P6SM FEW025
     FM021330 08014KT P6SM FEW030
      AMD NOT SKED 0202/0211=



000
FTUS42 TJSJ 011700
TAFJPS
TAF
TJPS 011736Z 0118/0218 13012KT P6SM FEW030
     FM012330 05005KT P6SM FEW030
     FM021400 14010KT P6SM FEW030
      AMD NOT SKED TIL 020300=



000
FTUS42 TJSJ 011700
TAFIST
TAF
TIST 011736Z 0118/0218 14012KT P6SM VCSH FEW040
     FM012300 09008KT P6SM FEW025
     FM021200 12012KT P6SM VCSH SCT025=



000
FTUS42 TJSJ 011100
TAFNCM
TAF
TNCM 011120Z 0112/0212 09009KT P6SM FEW020
     FM011300 10012KT P6SM FEW020=



000
FTUS42 TJSJ 011100
TAFJBQ
TAF
TJBQ 011120Z 0112/0212 11008KT P6SM SCT030
     FM011400 07016G20KT P6SM FEW025
     FM011700 09014G18KT P6SM VCTS SCT025CB
     FM012300 09008KT P6SM SCT025
      AMD NOT SKED 0202/0211=



000
FTUS42 TJSJ 011100
TAFJPS
TAF
TJPS 011120Z 0112/0212 05005KT P6SM FEW030
     FM011500 13012KT P6SM FEW030
     FM012330 07007KT P6SM FEW030 SCT060
      AMD NOT SKED TIL 020300=



000
FTUS42 TJSJ 011100
TAFJSJ
TAF
TJSJ 011120Z 0112/0212 10006KT P6SM VCSH FEW025 SCT050
     FM011300 07013G20KT P6SM SCT025 SCT070
     FM012200 10006KT P6SM SCT030=



000
FTUS42 TJSJ 011100
TAFISX
TAF
TISX 011120Z 0112/0212 09006KT P6SM VCSH FEW030
     FM011300 10013KT P6SM FEW025
     FM012300 06006KT P6SM FEW025=



000
FTUS42 TJSJ 011100
TAFIST
TAF
TIST 011120Z 0112/0212 09006KT P6SM VCSH SCT025
     FM011300 10011KT P6SM FEW025
     FM012300 09008KT P6SM FEW025=



000
FTUS42 TJSJ 011100
TAFKPK
TAF
TKPK 011120Z 0112/0212 07009KT P6SM FEW020
     FM011300 08012KT P6SM FEW025
      AMD NOT SKED 0202/0211=



000
FTUS42 TJSJ 011100
TAFJMZ
TAF
TJMZ 011120Z 0112/0212 09005KT P6SM SCT025
     FM011530 27008KT P6SM SCT025 BKN040
     FM011600 24010KT P6SM VCTS BKN040CB
      TEMPO 0117/0120 VRB10KT 4SM TSRA BKN030CB
     FM012200 06006KT P6SM SCT025 SCT040
      AMD NOT SKED TIL 011600=



000
FTUS42 TJSJ 010500
TAFJSJ
TAF
TJSJ 010537Z 0106/0206 10006KT P6SM VCSH FEW030
     FM011300 07013G20KT P6SM FEW025 SCT070
     FM012200 10006KT P6SM SCT030=



000
FTUS42 TJSJ 010500
TAFJMZ
TAF
TJMZ 010537Z 0106/0206 09005KT P6SM SCT025
     FM011530 27008KT P6SM SCT025 BKN040
     FM011700 24010KT P6SM VCSH BKN040
     FM012200 06006KT P6SM SCT025 SCT040
      AMD NOT SKED TIL 011600=



000
FTUS42 TJSJ 010500
TAFJBQ
TAF
TJBQ 010537Z 0106/0206 11008KT P6SM SCT030
     FM011400 07016G21KT P6SM FEW025
     FM011700 09014G18KT P6SM VCSH SCT025
     FM012300 09008KT P6SM SCT025
      AMD NOT SKED TIL 011100=



000
FTUS42 TJSJ 010500
TAFNCM
TAF
TNCM 010537Z 0106/0206 09009KT P6SM SCT020
     FM011300 10010KT P6SM FEW020=



000
FTUS42 TJSJ 010500
TAFJPS
TAF
TJPS 010537Z 0106/0206 05005KT P6SM FEW030
     FM011500 13012KT P6SM FEW030
     FM012330 07007KT P6SM FEW030 SCT060
      AMD NOT SKED 0112/0203=



000
FTUS42 TJSJ 010500
TAFISX
TAF
TISX 010537Z 0106/0206 04006KT P6SM VCSH FEW030
     FM011300 10013KT P6SM FEW025
     FM012300 06006KT P6SM FEW025=



000
FTUS42 TJSJ 010500
TAFKPK
TAF
TKPK 010537Z 0106/0206 07009KT P6SM FEW020
     FM011300 08012KT P6SM FEW025
      AMD NOT SKED TIL 011100=



000
FTUS42 TJSJ 010500
TAFIST
TAF
TIST 010537Z 0106/0206 08006KT P6SM VCSH SCT025
     FM011300 10011KT P6SM FEW025
     FM012300 09008KT P6SM FEW025=



000
FTUS42 TJSJ 312300 RRA
TAFJPS
TAF
TJPS 312341Z 0100/0124 05005KT P6SM FEW020 SCT050
     FM011500 13012KT P6SM FEW030
     FM012330 09007KT P6SM FEW030 SCT060
      AMD NOT SKED TIL 010300=



000
FTUS42 TJSJ 312300 RRA
TAFIST
TAF
TIST 312341Z 0100/0124 08006KT P6SM VCSH SCT025
     FM011300 11011KT P6SM FEW025
     FM012300 09008KT P6SM FEW025=



000
FTUS42 TJSJ 312300 RRA
TAFJBQ
TAF
TJBQ 312341Z 0100/0124 10008KT P6SM SCT030
     FM011400 07016G21KT P6SM FEW025
     FM012300 09008KT P6SM SCT025
      AMD NOT SKED 0102/0111=



000
FTUS42 TJSJ 312300 RRA
TAFJSJ
TAF
TJSJ 312341Z 0100/0124 10006KT P6SM VCSH SCT030
     FM011300 07013G21KT P6SM FEW025 SCT070
     FM012200 10006KT P6SM SCT030=



000
FTUS42 TJSJ 312300 RRA
TAFJMZ
TAF
TJMZ 312341Z 0100/0124 06006KT P6SM SCT025 SCT040
     FM011530 27010KT P6SM SCT025 BKN040
     FM012200 06006KT P6SM SCT025 SCT040
      AMD NOT SKED TIL 011600=



000
FTUS42 TJSJ 312300 RRA
TAFKPK
TAF
TKPK 312341Z 0100/0124 07009KT P6SM FEW020
     FM011300 08010KT P6SM FEW025
      AMD NOT SKED 0102/0111=



000
FTUS42 TJSJ 312300 RRA
TAFNCM
TAF
TNCM 312341Z 0100/0124 08009KT P6SM SCT020
     FM011300 10010KT P6SM FEW020=



000
FTUS42 TJSJ 312300 RRA
TAFISX
TAF
TISX 312341Z 0100/0124 04003KT P6SM FEW030
     FM011300 11013KT P6SM FEW025
     FM012300 06006KT P6SM FEW025=



000
FTUS42 TJSJ 311900 AAB
TAFJSJ
TAF AMD
TJSJ 311906Z 3119/0118 06018G22KT P6SM FEW030 SCT060
     FM312200 10006KT P6SM SCT030
     FM011300 07013G21KT P6SM FEW025 SCT070=



000
FTUS42 TJSJ 311700 AAA
TAFJSJ
TAF AMD
TJSJ 311739Z 3118/0118 09013G18KT P6SM FEW027 SCT035 SCT120
     FM312200 10006KT P6SM SCT030
     FM011300 07013G21KT P6SM FEW025 SCT070=



000
FTUS42 TJSJ 311700
TAFJBQ
TAF
TJBQ 311725Z 3118/0118 08017G20KT P6SM VCSH SCT080
     FM312300 09008KT P6SM FEW030 SCT080
     FM011400 07016G21KT P6SM FEW025
      AMD NOT SKED 0102/0111=



000
FTUS42 TJSJ 311700
TAFISX
TAF
TISX 311725Z 3118/0118 11013KT P6SM FEW025 SCT060
     FM312300 07005KT P6SM VCSH SCT025
     FM011300 11013KT P6SM FEW025=



000
FTUS42 TJSJ 311700
TAFJMZ
TAF
TJMZ 311725Z 3118/0118 27011KT P6SM VCTS SCT025CB BKN040
     FM312200 06006KT P6SM SCT025 SCT040
     FM011530 27010KT P6SM SCT025 BKN040
      AMD NOT SKED 3123/0116=



000
FTUS42 TJSJ 311700
TAFJSJ
TAF
TJSJ 311725Z 3118/0118 06015G21KT P6SM FEW027 SCT040 SCT050
     FM312200 10006KT P6SM SCT030
     FM011300 07013G21KT P6SM FEW025 SCT070=



000
FTUS42 TJSJ 311700
TAFKPK
TAF
TKPK 311725Z 3118/0118 07011KT P6SM FEW024
     FM312200 07008KT P6SM FEW020
     FM011300 08010KT P6SM FEW025
      AMD NOT SKED 0102/0111=



000
FTUS42 TJSJ 311700
TAFJPS
TAF
TJPS 311725Z 3118/0118 13012KT P6SM FEW030 SCT100
     FM312330 09007KT P6SM FEW030 SCT060
     FM011500 13012KT P6SM FEW030
      AMD NOT SKED TIL 010300=



000
FTUS42 TJSJ 311700
TAFIST
TAF
TIST 311725Z 3118/0118 13013KT P6SM FEW028 SCT060
     FM312300 09008KT P6SM VCSH SCT025
     FM011300 11011KT P6SM FEW025=



000
FTUS42 TJSJ 311700
TAFNCM
TAF
TNCM 311725Z 3118/0118 09011KT P6SM FEW018
     FM312200 09009KT P6SM FEW020
     FM011300 10010KT P6SM FEW020=



000
FTUS42 TJSJ 311100
TAFIST
TAF
TIST 311125Z 3112/0112 08006KT P6SM VCSH SCT025 BKN050
     FM311430 13013KT P6SM FEW028 SCT060
     FM312300 09008KT P6SM VCSH SCT025=



000
FTUS42 TJSJ 311100
TAFJMZ
TAF
TJMZ 311125Z 3112/0112 07003KT P6SM FEW040 BKN250
     FM311530 27011KT P6SM VCTS SCT025CB BKN040
     FM312200 06006KT P6SM SCT025 SCT040
      AMD NOT SKED TIL 311600=



000
FTUS42 TJSJ 311100
TAFKPK
TAF
TKPK 311125Z 3112/0112 07016KT P6SM VCSH FEW021
     FM311430 09013KT P6SM SCT024
     FM312200 07008KT P6SM FEW020=



000
FTUS42 TJSJ 311100
TAFJPS
TAF
TJPS 311125Z 3112/0112 05003KT P6SM VCSH FEW025 SCT070 BKN250
     FM311500 13012KT P6SM FEW030 SCT100
     FM312330 09007KT P6SM FEW030 SCT060=



000
FTUS42 TJSJ 311100
TAFJBQ
TAF
TJBQ 311125Z 3112/0112 10005KT P6SM SCT090 BKN250
     FM311400 07013KT P6SM SCT025 SCT250
     FM311730 08015G20KT P6SM VCSH SCT025 BKN050
     FM312300 09008KT P6SM FEW030 SCT080
      AMD NOT SKED=



000
FTUS42 TJSJ 311100
TAFJSJ
TAF
TJSJ 311125Z 3112/0112 VRB03KT P6SM VCSH FEW026 SCT120
     FM311300 07014G20KT P6SM FEW025 SCT060
     FM312200 10006KT P6SM SCT030=



000
FTUS42 TJSJ 311100
TAFISX
TAF
TISX 311125Z 3112/0112 05006KT P6SM VCSH SCT030
     FM311430 11013KT P6SM FEW025 SCT060
     FM312300 07005KT P6SM VCSH SCT025=



000
FTUS42 TJSJ 311100
TAFNCM
TAF
TNCM 311125Z 3112/0112 09011G22KT P6SM VCSH SCT017
     FM311430 11014KT P6SM SCT024
     FM312200 09009KT P6SM FEW020=



000
FTUS42 TJSJ 310500
TAFJMZ
TAF
TJMZ 310533Z 3106/0106 00000KT P6SM FEW250
     FM311530 27011KT P6SM VCTS SCT025CB BKN040
     FM312200 06006KT P6SM SCT025 SCT040
      AMD NOT SKED TIL 311100=



000
FTUS42 TJSJ 310500
TAFISX
TAF
TISX 310533Z 3106/0106 05004KT P6SM VCSH SCT022 BKN040
     FM311430 11013KT P6SM FEW025 SCT060
     FM312300 06005KT P6SM SCT025=



000
FTUS42 TJSJ 310500
TAFKPK
TAF
TKPK 310533Z 3106/0106 08007KT P6SM VCSH FEW018 SCT035
     FM311430 11013KT P6SM SCT024
     FM312200 06005KT P6SM FEW018
      AMD NOT SKED TIL 311100=



000
FTUS42 TJSJ 310500
TAFIST
TAF
TIST 310533Z 3106/0106 08006KT P6SM VCSH SCT022 BKN040
     FM311430 13013KT P6SM FEW025 SCT060
     FM312300 09008KT P6SM SCT025=



000
FTUS42 TJSJ 310500
TAFNCM
TAF
TNCM 310533Z 3106/0106 08009KT P6SM VCSH FEW018 SCT035
     FM311430 11013KT P6SM SCT024
     FM312200 08007KT P6SM FEW019=



000
FTUS42 TJSJ 310500
TAFJBQ
TAF
TJBQ 310533Z 3106/0106 11003KT P6SM FEW035
     FM311400 07013KT P6SM SCT025 PROB30 3118/3122 -SHRA SCT022
      BKN035
     FM312300 09008KT P6SM FEW030 SCT080
      AMD NOT SKED TIL 311100=



000
FTUS42 TJSJ 310500
TAFJPS
TAF
TJPS 310533Z 3106/0106 05003KT P6SM VCSH SCT025 SCT050
     FM311500 13012KT P6SM FEW030 SCT100
     FM312330 09007KT P6SM FEW030 SCT060=



000
FTUS42 TJSJ 310500
TAFJSJ
TAF
TJSJ 310533Z 3106/0106 07005KT P6SM VCSH SCT025 SCT040
     FM311300 07014G21KT P6SM FEW025 SCT070
     FM312200 10006KT P6SM SCT030=



000
FTUS42 TJSJ 302300 RRA
TAFNCM
TAF
TNCM 302341Z 3100/3124 08008KT P6SM SCT020
     FM311300 11013KT P6SM SCT025=



000
FTUS42 TJSJ 302300 RRA
TAFIST
TAF
TIST 302341Z 3100/3124 10006KT P6SM VCSH SCT030 SCT060
     FM311300 13012KT P6SM SCT025
     FM312300 09008KT P6SM FEW025=



000
FTUS42 TJSJ 302300 RRA
TAFISX
TAF
TISX 302341Z 3100/3124 07006KT P6SM VCSH SCT030 SCT060
     FM311300 11013KT P6SM SCT025
     FM312300 06006KT P6SM FEW025=



000
FTUS42 TJSJ 302300 RRA
TAFKPK
TAF
TKPK 302341Z 3100/3124 08007KT P6SM VCSH SCT020
     FM311300 11013KT P6SM SCT025
      AMD NOT SKED 3102/3111=



000
FTUS42 TJSJ 302300 RRA
TAFJPS
TAF
TJPS 302341Z 3100/3124 06004KT P6SM VCSH SCT030 SCT060
     FM311500 13012KT P6SM FEW030 SCT060
     FM312330 09007KT P6SM FEW030 SCT060
      AMD NOT SKED TIL 310300=



000
FTUS42 TJSJ 302300 RRA
TAFJBQ
TAF
TJBQ 302341Z 3100/3124 10006KT P6SM SCT040
     FM311400 08013KT P6SM SCT025
     FM312300 09008KT P6SM SCT025
      AMD NOT SKED 3102/3111=



000
FTUS42 TJSJ 302300 RRA
TAFJMZ
TAF
TJMZ 302341Z 3100/3124 08004KT P6SM SCT030
     FM311530 27010KT P6SM VCTS SCT025CB BKN040
     FM312200 06006KT P6SM SCT025 SCT040
      AMD NOT SKED TIL 311600=



000
FTUS42 TJSJ 302300 RRA
TAFJSJ
TAF
TJSJ 302341Z 3100/3124 07005KT P6SM VCSH SCT025 SCT060
     FM311300 07014G21KT P6SM FEW025 SCT070
     FM312200 10006KT P6SM SCT030=



000
FTUS42 TJSJ 301700 AAA
TAFNCM
TAF AMD
TNCM 301726Z 3017/3118 10011KT P6SM VCTS SCT012CB SCT030 BKN080
      TEMPO 3018/3020 VRB12G21KT 3SM TSRA BKN018CB OVC030
     FM302300 07006KT P6SM SCT030
     FM311300 11013KT P6SM SCT025=



000
FTUS42 TJSJ 301700
TAFISX
TAF
TISX 301724Z 3018/3118 13009G17KT P6SM SCT025 SCT040
     FM302300 07006KT P6SM SCT030
     FM311300 11013KT P6SM SCT025=



000
FTUS42 TJSJ 301700
TAFNCM
TAF
TNCM 301724Z 3018/3118 10011KT P6SM VCTS SCT012CB SCT030 BKN080
      TEMPO 3018/3020 VRB12G21KT 3SM TSRA BKN018CB OVC030
     FM302300 07006KT P6SM SCT030
     FM311300 11013KT P6SM SCT025=



000
FTUS42 TJSJ 301700
TAFJPS
TAF
TJPS 301724Z 3018/3118 13012KT P6SM SCT030 SCT060
     FM302330 06004KT P6SM FEW030
     FM311500 13012KT P6SM FEW030 SCT060
      AMD NOT SKED TIL 310300=



000
FTUS42 TJSJ 301700
TAFIST
TAF
TIST 301724Z 3018/3118 13013G21KT P6SM FEW025 SCT040
     FM302200 10008KT P6SM SCT030
     FM311300 13012KT P6SM SCT025=



000
FTUS42 TJSJ 301700
TAFJBQ
TAF
TJBQ 301724Z 3018/3118 08016G23KT P6SM VCSH SCT024
     FM302300 09008KT P6SM FEW030 SCT070
     FM311400 08013KT P6SM SCT025
      AMD NOT SKED 3102/3111=



000
FTUS42 TJSJ 301700
TAFKPK
TAF
TKPK 301724Z 3018/3118 09009KT P6SM VCTS SCT014CB SCT030 BKN080
      TEMPO 3018/3020 VRB12G21KT 3SM TSRA BKN018CB OVC030
     FM302300 07006KT P6SM SCT030
     FM311300 11013KT P6SM SCT025
      AMD NOT SKED 3102/3111=



000
FTUS42 TJSJ 301700
TAFJMZ
TAF
TJMZ 301724Z 3018/3118 24009KT P6SM VCTS BKN030CB
      TEMPO 3018/3020 VRB12KT 3SM TSRA BKN025CB OVC040
     FM302330 06006KT P6SM FEW040
     FM311530 27010KT P6SM VCTS SCT025CB BKN040
      AMD NOT SKED 3023/3116=



000
FTUS42 TJSJ 301700
TAFJSJ
TAF
TJSJ 301724Z 3018/3118 07012G20KT P6SM VCSH FEW023 SCT060 SCT100
     FM302200 10005KT P6SM VCSH SCT025 SCT060
     FM311300 07014G21KT P6SM FEW025 SCT070=



000
FTUS42 TJSJ 301300 AAA
TAFNCM
TAF AMD
TNCM 301335Z 3014/3112 VRB04KT P6SM VCSH SCT017 SCT035
      TEMPO 3014/3017 VRB10G18KT 3SM SHRA BKN018
     FM301700 12012KT P6SM VCSH SCT020=



000
FTUS42 TJSJ 301100
TAFIST
TAF
TIST 301120Z 3012/3112 08005KT P6SM VCSH SCT022 BKN040
      TEMPO 3012/3014 -SHRA BKN022
     FM301430 12012KT P6SM FEW025 SCT050
     FM302200 10008KT P6SM SCT030=



000
FTUS42 TJSJ 301100
TAFKPK
TAF
TKPK 301120Z 3012/3112 08008KT P6SM VCSH FEW019
      TEMPO 3012/3014 -SHRA BKN018
     FM301400 08010KT P6SM FEW020 SCT035
     FM301700 07012KT P6SM VCSH SCT020=



000
FTUS42 TJSJ 301100
TAFJSJ
TAF
TJSJ 301120Z 3012/3112 VRB05KT P6SM VCSH SCT024 BKN080
      TEMPO 3012/3013 -SHRA SCT025 BKN035
     FM301400 09010KT P6SM FEW030 SCT090
     FM301700 07014KT P6SM VCSH SCT025 SCT050
     FM302200 10005KT P6SM FEW025 SCT060=



000
FTUS42 TJSJ 301100
TAFJPS
TAF
TJPS 301120Z 3012/3112 00000KT P6SM FEW030
     FM301430 13012KT P6SM SCT030 SCT060
     FM302330 07004KT P6SM FEW030
      AMD NOT SKED TIL 310300=



000
FTUS42 TJSJ 301100
TAFNCM
TAF
TNCM 301120Z 3012/3112 11005KT P6SM VCSH SCT017
      TEMPO 3012/3014 -SHRA BKN018
     FM301400 09010KT P6SM FEW020 SCT035
     FM301700 12012KT P6SM VCSH SCT020=



000
FTUS42 TJSJ 301100
TAFISX
TAF
TISX 301120Z 3012/3112 02005KT P6SM VCSH FEW022
      TEMPO 3012/3014 -SHRA BKN022
     FM301430 09012KT P6SM FEW025 SCT060
     FM302300 07006KT P6SM SCT030=



000
FTUS42 TJSJ 301100
TAFJMZ
TAF
TJMZ 301120Z 3012/3112 06007KT P6SM FEW030
     FM301530 29010KT P6SM VCTS FEW025CB BKN040
      TEMPO 3016/3020 VRB12KT 5SM -TSRA SCT022CB BKN050
     FM302230 06006KT P6SM SCT030 SCT070=



000
FTUS42 TJSJ 301100
TAFJBQ
TAF
TJBQ 301120Z 3012/3112 12004KT P6SM FEW025 SCT060
     FM301530 07013KT P6SM VCSH SCT025 BKN050
     FM302300 09008KT P6SM FEW030 SCT070=



000
FTUS42 TJSJ 300500
TAFKPK
TAF
TKPK 300533Z 3006/3106 06009KT P6SM VCSH SCT018
      TEMPO 3006/3010 -SHRA SCT018
     FM301330 07011KT P6SM FEW020 SCT035 PROB30 3017/3021 -SHRA
      BKN020
      AMD NOT SKED TIL 301100=



000
FTUS42 TJSJ 300500
TAFJSJ
TAF
TJSJ 300533Z 3006/3106 10003KT P6SM VCSH FEW022 SCT035 BKN080
      TEMPO 3006/3010 -SHRA SCT020 BKN030
     FM301430 07012KT P6SM FEW025 SCT050 SCT080 PROB30 3016/3020 5SM
      SHRA BKN025
     FM302230 10006KT P6SM SCT030 SCT060=



000
FTUS42 TJSJ 300500
TAFIST
TAF
TIST 300533Z 3006/3106 08005KT P6SM VCSH SCT022 BKN040
      TEMPO 3006/3010 -SHRA BKN022
     FM301430 12012KT P6SM FEW025 SCT050
     FM302300 09008KT P6SM SCT030=



000
FTUS42 TJSJ 300500
TAFISX
TAF
TISX 300533Z 3006/3106 03004KT P6SM VCSH SCT022 BKN040
      TEMPO 3006/3010 -SHRA BKN022
     FM301430 09012KT P6SM FEW025 SCT060
     FM302300 06006KT P6SM SCT030=



000
FTUS42 TJSJ 300500
TAFJBQ
TAF
TJBQ 300533Z 3006/3106 12004KT P6SM FEW025 SCT040 BKN090
     FM301530 07013KT P6SM VCSH SCT025 BKN050
     FM302300 09008KT P6SM FEW030 SCT070=



000
FTUS42 TJSJ 300500
TAFNCM
TAF
TNCM 300533Z 3006/3106 08010KT P6SM VCSH SCT019
      TEMPO 3006/3010 -SHRA BKN018
     FM301330 11012KT P6SM FEW020 SCT035 PROB30 3017/3021 -SHRA
      BKN020=



000
FTUS42 TJSJ 300500
TAFJMZ
TAF
TJMZ 300533Z 3006/3106 06007KT P6SM FEW030
     FM301530 29010KT P6SM VCTS FEW025CB BKN040
      TEMPO 3016/3020 VRB12KT 5SM -TSRA SCT022CB BKN050
     FM302230 06006KT P6SM SCT030 SCT070
      AMD NOT SKED TIL 301100=



000
FTUS42 TJSJ 300500
TAFJPS
TAF
TJPS 300533Z 3006/3106 09007KT P6SM VCSH FEW025 BKN080
     FM301400 13012KT P6SM FEW030 SCT050 SCT080 PROB30 3016/3020
      -SHRA BKN025 BKN040
     FM302330 09007KT P6SM FEW030 BKN060=



000
FTUS42 TJSJ 300200 AAA
TAFNCM
TAF AMD
TNCM 300253Z 3003/3024 08010KT P6SM VCSH SCT021
      TEMPO 3003/3004 BKN017=



000
FTUS42 TJSJ 292300 RRA
TAFKPK
TAF
TKPK 292342Z 3000/3024 06010KT P6SM SCT021
      TEMPO 3000/3002 03010KT 6SM -SHRA SCT016
      AMD NOT SKED 3002/3011=



000
FTUS42 TJSJ 292300 RRA
TAFNCM
TAF
TNCM 292342Z 3000/3024 08010KT P6SM VCSH SCT021=



000
FTUS42 TJSJ 292300 RRA
TAFISX
TAF
TISX 292342Z 3000/3024 VRB05KT P6SM VCSH FEW025
     FM301300 10013KT P6SM VCSH SCT025
     FM302300 06006KT P6SM FEW025=



000
FTUS42 TJSJ 292300 RRA
TAFJPS
TAF
TJPS 292342Z 3000/3024 09007KT P6SM FEW030 BKN060
     FM301500 13012KT P6SM VCSH FEW030 BKN060
     FM302330 09007KT P6SM FEW030 SCT060
      AMD NOT SKED TIL 300300=



000
FTUS42 TJSJ 292300 RRA
TAFIST
TAF
TIST 292342Z 3000/3024 10008KT P6SM VCSH FEW025
     FM301300 10012KT P6SM VCSH SCT025
     FM302300 09008KT P6SM FEW025=



000
FTUS42 TJSJ 292300 RRA
TAFJMZ
TAF
TJMZ 292342Z 3000/3024 06007KT P6SM FEW025
     FM301530 29010KT P6SM VCTS SCT025 BKN040CB
     FM302200 06006KT P6SM SCT025 SCT040
      AMD NOT SKED TIL 301600=



000
FTUS42 TJSJ 292300 RRA
TAFJSJ
TAF
TJSJ 292342Z 3000/3024 08005KT P6SM VCSH SCT025 BKN080
     FM301400 07012KT P6SM VCSH SCT025 BKN060
     FM302200 10006KT P6SM SCT030=



000
FTUS42 TJSJ 292300 RRA
TAFJBQ
TAF
TJBQ 292342Z 3000/3024 VRB05KT P6SM SCT025
     FM301400 07013KT P6SM VCSH SCT025
     FM302300 09008KT P6SM SCT025
      AMD NOT SKED 3002/3011=



    US Dept of Commerce
    National Oceanic and Atmospheric Administration
    National Weather Service
    1325 East West Highway
    Silver Spring, MD 20910
    Page Author: NWS Internet Services Team
Disclaimer
Information Quality
Credits
Glossary
Privacy Policy
Freedom of Information Act (FOIA)
About Us
Career Opportunities